createdAt,value
2018-03-29T00:00:20.784Z,6.80
2018-03-29T00:02:48.882Z,6.90
2018-03-29T00:05:17.033Z,6.90
2018-03-29T00:07:45.136Z,6.80
2018-03-29T00:10:14.110Z,6.70
2018-03-29T00:12:42.975Z,6.80
2018-03-29T00:15:11.103Z,6.80
2018-03-29T00:17:39.238Z,6.70
2018-03-29T00:20:07.914Z,6.70
2018-03-29T00:22:36.011Z,6.70
2018-03-29T00:25:04.471Z,6.60
2018-03-29T00:27:32.575Z,6.70
2018-03-29T00:30:00.709Z,6.70
2018-03-29T00:32:28.828Z,6.60
2018-03-29T00:34:56.957Z,6.50
2018-03-29T00:37:25.046Z,6.60
2018-03-29T00:39:53.936Z,6.50
2018-03-29T00:42:22.801Z,6.40
2018-03-29T00:44:50.934Z,6.40
2018-03-29T00:47:19.036Z,6.30
2018-03-29T00:49:47.168Z,6.30
2018-03-29T00:52:15.291Z,6.30
2018-03-29T00:54:43.406Z,6.30
2018-03-29T00:57:11.515Z,6.40
2018-03-29T00:59:39.648Z,6.40
2018-03-29T01:02:08.523Z,6.30
2018-03-29T01:04:36.649Z,6.30
2018-03-29T01:07:04.751Z,6.20
2018-03-29T01:09:32.873Z,6.30
2018-03-29T01:12:00.959Z,6.30
2018-03-29T01:14:29.062Z,6.30
2018-03-29T01:16:57.180Z,6.30
2018-03-29T01:19:25.360Z,6.20
2018-03-29T01:21:53.423Z,6.10
2018-03-29T01:24:21.536Z,6.10
2018-03-29T01:26:49.672Z,6.10
2018-03-29T01:29:17.778Z,6.20
2018-03-29T01:31:45.911Z,6.10
2018-03-29T01:34:14.034Z,6.20
2018-03-29T01:36:42.154Z,6.00
2018-03-29T01:39:11.028Z,5.90
2018-03-29T01:41:39.924Z,5.90
2018-03-29T01:44:08.809Z,6.00
2018-03-29T01:46:36.927Z,6.00
2018-03-29T01:49:05.058Z,6.00
2018-03-29T01:51:33.938Z,5.90
2018-03-29T01:54:02.044Z,5.90
2018-03-29T01:56:30.932Z,6.00
2018-03-29T01:58:59.805Z,6.10
2018-03-29T02:01:28.696Z,6.00
2018-03-29T02:03:57.556Z,6.00
2018-03-29T02:06:25.670Z,6.00
2018-03-29T02:08:54.541Z,6.10
2018-03-29T02:11:22.656Z,6.10
2018-03-29T02:13:50.753Z,6.20
2018-03-29T02:16:18.880Z,6.00
2018-03-29T02:18:47.751Z,6.00
2018-03-29T02:21:15.866Z,5.90
2018-03-29T02:23:43.964Z,6.10
2018-03-29T02:26:12.079Z,6.10
2018-03-29T02:28:40.949Z,6.10
2018-03-29T02:31:09.071Z,6.10
2018-03-29T02:33:37.165Z,5.70
2018-03-29T02:36:05.287Z,5.80
2018-03-29T02:38:34.150Z,5.80
2018-03-29T02:41:02.262Z,5.80
2018-03-29T02:43:30.370Z,5.80
2018-03-29T02:45:58.501Z,5.70
2018-03-29T02:48:27.364Z,5.60
2018-03-29T02:50:55.487Z,5.60
2018-03-29T02:53:23.630Z,5.60
2018-03-29T02:55:52.518Z,5.60
2018-03-29T02:58:20.619Z,5.50
2018-03-29T03:00:48.738Z,5.60
2018-03-29T03:03:16.836Z,5.60
2018-03-29T03:05:44.966Z,5.70
2018-03-29T03:08:13.074Z,5.60
2018-03-29T03:10:41.195Z,5.60
2018-03-29T03:13:09.296Z,5.40
2018-03-29T03:15:37.429Z,5.40
2018-03-29T03:18:06.358Z,5.60
2018-03-29T03:20:34.482Z,5.60
2018-03-29T03:23:03.339Z,5.80
2018-03-29T03:25:31.477Z,5.70
2018-03-29T03:27:59.584Z,5.50
2018-03-29T03:30:27.717Z,5.50
2018-03-29T03:32:55.854Z,5.50
2018-03-29T03:35:24.737Z,5.60
2018-03-29T03:37:53.609Z,5.50
2018-03-29T03:40:21.732Z,5.50
2018-03-29T03:42:49.837Z,5.60
2018-03-29T03:45:17.990Z,5.50
2018-03-29T03:47:46.088Z,5.50
2018-03-29T03:50:14.192Z,5.60
2018-03-29T03:52:42.310Z,5.40
2018-03-29T03:55:10.428Z,5.40
2018-03-29T03:57:38.553Z,5.40
2018-03-29T04:00:06.664Z,5.30
2018-03-29T04:02:34.781Z,5.30
2018-03-29T04:05:02.879Z,5.10
2018-03-29T04:07:30.995Z,5.30
2018-03-29T04:09:59.887Z,5.30
2018-03-29T04:12:27.999Z,5.30
2018-03-29T04:14:56.090Z,5.40
2018-03-29T04:17:24.209Z,5.40
2018-03-29T04:19:52.306Z,5.50
2018-03-29T04:22:20.429Z,5.40
2018-03-29T04:24:48.528Z,5.10
2018-03-29T04:27:16.656Z,5.10
2018-03-29T04:29:44.764Z,5.20
2018-03-29T04:32:12.898Z,5.20
2018-03-29T04:34:40.992Z,5.40
2018-03-29T04:37:09.111Z,5.60
2018-03-29T04:39:37.967Z,5.60
2018-03-29T04:42:06.098Z,5.50
2018-03-29T04:44:34.197Z,5.40
2018-03-29T04:47:02.324Z,5.40
2018-03-29T04:49:30.423Z,5.30
2018-03-29T04:51:58.551Z,5.40
2018-03-29T04:54:27.406Z,5.40
2018-03-29T04:56:55.533Z,5.50
2018-03-29T04:59:24.395Z,5.60
2018-03-29T05:01:52.527Z,5.60
2018-03-29T05:04:20.614Z,5.50
2018-03-29T05:06:48.744Z,5.60
2018-03-29T05:09:16.849Z,5.40
2018-03-29T05:11:44.974Z,5.50
2018-03-29T05:14:13.848Z,5.30
2018-03-29T05:16:41.974Z,5.30
2018-03-29T05:19:10.070Z,5.50
2018-03-29T05:21:38.235Z,5.60
2018-03-29T05:24:06.350Z,5.50
2018-03-29T05:26:39.770Z,5.50
2018-03-29T05:29:07.933Z,5.50
2018-03-29T05:31:37.282Z,5.60
2018-03-29T05:34:05.400Z,5.50
2018-03-29T05:36:34.284Z,5.50
2018-03-29T05:39:02.389Z,5.50
2018-03-29T05:41:30.528Z,5.70
2018-03-29T05:43:58.723Z,5.50
2018-03-29T05:46:26.849Z,5.50
2018-03-29T05:48:54.949Z,5.50
2018-03-29T05:51:23.145Z,5.50
2018-03-29T05:53:51.253Z,5.40
2018-03-29T05:56:19.375Z,5.60
2018-03-29T05:58:48.285Z,5.70
2018-03-29T06:01:16.444Z,5.70
2018-03-29T06:03:45.319Z,5.80
2018-03-29T06:06:13.622Z,5.80
2018-03-29T06:08:42.642Z,6.00
2018-03-29T06:11:10.763Z,6.00
2018-03-29T06:13:40.644Z,5.90
2018-03-29T06:16:08.785Z,6.00
2018-03-29T06:18:36.925Z,6.00
2018-03-29T06:21:05.341Z,6.00
2018-03-29T06:23:34.210Z,5.80
2018-03-29T06:26:02.299Z,5.80
2018-03-29T06:28:31.192Z,6.10
2018-03-29T06:31:00.062Z,6.10
2018-03-29T06:33:28.200Z,6.10
2018-03-29T06:35:56.367Z,6.10
2018-03-29T06:38:24.499Z,6.00
2018-03-29T06:40:53.434Z,6.10
2018-03-29T06:43:21.582Z,6.10
2018-03-29T06:45:49.717Z,6.30
2018-03-29T06:48:17.835Z,6.30
2018-03-29T06:50:45.952Z,6.30
2018-03-29T06:53:14.080Z,6.60
2018-03-29T06:55:42.277Z,6.20
2018-03-29T06:58:10.408Z,6.40
2018-03-29T07:00:38.710Z,6.30
2018-03-29T07:03:06.889Z,6.40
2018-03-29T07:05:35.014Z,6.40
2018-03-29T07:08:03.137Z,6.40
2018-03-29T07:10:31.258Z,6.50
2018-03-29T07:12:59.396Z,6.70
2018-03-29T07:15:27.499Z,6.70
2018-03-29T07:17:55.627Z,6.80
2018-03-29T07:20:23.746Z,6.90
2018-03-29T07:22:51.870Z,7.30
2018-03-29T07:25:19.981Z,7.60
2018-03-29T07:27:48.103Z,8.10
2018-03-29T07:30:16.206Z,8.30
2018-03-29T07:32:44.348Z,8.20
2018-03-29T07:35:12.448Z,8.50
2018-03-29T07:37:40.600Z,8.50
2018-03-29T07:40:08.968Z,9.30
2018-03-29T07:42:38.048Z,12.50
2018-03-29T07:45:06.964Z,13.40
2018-03-29T07:47:35.116Z,13.40
2018-03-29T07:50:03.993Z,12.80
2018-03-29T07:52:32.896Z,13.00
2018-03-29T07:55:01.762Z,14.10
2018-03-29T07:57:29.912Z,14.10
2018-03-29T07:59:58.023Z,14.50
2018-03-29T08:02:26.941Z,13.00
2018-03-29T08:04:55.089Z,13.00
2018-03-29T08:07:24.266Z,11.80
2018-03-29T08:09:52.373Z,11.80
2018-03-29T08:12:20.506Z,11.70
2018-03-29T08:14:48.623Z,12.70
2018-03-29T08:17:16.762Z,14.90
2018-03-29T08:19:44.870Z,14.50
2018-03-29T08:22:13.012Z,13.90
2018-03-29T08:24:41.131Z,13.40
2018-03-29T08:27:09.260Z,12.40
2018-03-29T08:29:37.371Z,12.30
2018-03-29T08:32:05.516Z,11.90
2018-03-29T08:34:34.414Z,11.40
2018-03-29T08:37:03.317Z,11.60
2018-03-29T08:39:31.428Z,11.60
2018-03-29T08:41:59.550Z,11.50
2018-03-29T08:44:28.422Z,13.70
2018-03-29T08:46:56.558Z,13.70
2018-03-29T08:49:24.667Z,15.50
2018-03-29T08:51:52.808Z,16.70
2018-03-29T08:54:24.851Z,17.10
2018-03-29T08:56:53.000Z,17.60
2018-03-29T08:59:21.876Z,16.80
2018-03-29T09:01:50.780Z,17.10
2018-03-29T09:04:19.683Z,18.40
2018-03-29T09:06:47.792Z,18.30
2018-03-29T09:09:15.943Z,18.10
2018-03-29T09:11:44.099Z,18.10
2018-03-29T09:14:12.226Z,17.30
2018-03-29T09:16:40.364Z,16.00
2018-03-29T09:19:08.500Z,14.70
2018-03-29T09:21:36.603Z,13.40
2018-03-29T09:24:04.746Z,13.00
2018-03-29T09:26:33.636Z,13.20
2018-03-29T09:29:01.776Z,13.20
2018-03-29T09:31:29.878Z,12.90
2018-03-29T09:33:58.022Z,13.80
2018-03-29T09:36:26.179Z,13.70
2018-03-29T09:38:54.288Z,13.50
2018-03-29T09:41:22.412Z,12.70
2018-03-29T09:43:50.546Z,12.40
2018-03-29T09:46:18.664Z,12.20
2018-03-29T09:48:46.836Z,12.60
2018-03-29T09:51:14.956Z,13.90
2018-03-29T09:53:43.129Z,15.40
2018-03-29T09:56:11.234Z,16.90
2018-03-29T09:58:39.381Z,17.90
2018-03-29T10:01:07.487Z,18.00
2018-03-29T10:03:39.505Z,17.90
2018-03-29T10:06:13.294Z,18.00
2018-03-29T10:08:41.441Z,18.80
2018-03-29T10:11:09.554Z,18.50
2018-03-29T10:13:37.705Z,19.10
2018-03-29T10:16:05.833Z,18.60
2018-03-29T10:18:34.741Z,18.50
2018-03-29T10:21:02.856Z,18.50
2018-03-29T10:23:30.994Z,18.60
2018-03-29T10:25:59.112Z,17.70
2018-03-29T10:28:27.243Z,17.10
2018-03-29T10:30:55.395Z,16.50
2018-03-29T10:33:24.300Z,15.60
2018-03-29T10:35:52.422Z,15.50
2018-03-29T10:38:20.546Z,15.50
2018-03-29T10:40:48.663Z,15.70
2018-03-29T10:43:16.801Z,15.50
2018-03-29T10:45:44.912Z,15.60
2018-03-29T10:48:13.052Z,15.30
2018-03-29T10:50:42.014Z,14.90
2018-03-29T10:53:10.924Z,14.20
2018-03-29T10:55:39.050Z,14.20
2018-03-29T10:58:07.193Z,14.30
2018-03-29T11:00:35.305Z,14.10
2018-03-29T11:03:03.446Z,13.70
2018-03-29T11:05:31.588Z,13.60
2018-03-29T11:07:59.764Z,12.80
2018-03-29T11:10:27.875Z,12.70
2018-03-29T11:12:55.992Z,12.40
2018-03-29T11:15:24.910Z,12.20
2018-03-29T11:17:53.020Z,12.20
2018-03-29T11:20:21.160Z,11.80
2018-03-29T11:22:49.269Z,11.70
2018-03-29T11:25:17.429Z,11.80
2018-03-29T11:27:45.553Z,12.00
2018-03-29T11:30:14.460Z,11.60
2018-03-29T11:32:42.585Z,11.60
2018-03-29T11:35:10.790Z,12.00
2018-03-29T11:37:39.668Z,12.50
2018-03-29T11:40:07.809Z,12.40
2018-03-29T11:42:35.924Z,12.40
2018-03-29T11:45:04.833Z,12.30
2018-03-29T11:47:32.952Z,12.30
2018-03-29T11:50:01.088Z,12.30
2018-03-29T11:52:29.254Z,12.00
2018-03-29T11:54:58.154Z,12.00
2018-03-29T11:57:26.265Z,12.00
2018-03-29T11:59:54.409Z,12.10
2018-03-29T12:02:22.530Z,11.90
2018-03-29T12:04:50.669Z,12.00
2018-03-29T12:07:20.038Z,11.90
2018-03-29T12:09:48.945Z,11.90
2018-03-29T12:12:17.084Z,11.90
2018-03-29T12:14:45.237Z,12.00
2018-03-29T12:17:13.356Z,12.10
2018-03-29T12:19:41.495Z,12.00
2018-03-29T12:22:09.617Z,12.00
2018-03-29T12:24:37.757Z,11.90
2018-03-29T12:27:05.855Z,11.30
2018-03-29T12:29:33.989Z,10.50
2018-03-29T12:32:02.100Z,9.80
2018-03-29T12:34:30.226Z,9.80
2018-03-29T12:36:58.345Z,9.50
2018-03-29T12:39:26.486Z,9.30
2018-03-29T12:41:54.595Z,9.40
2018-03-29T12:44:22.728Z,9.50
2018-03-29T12:46:50.851Z,9.70
2018-03-29T12:49:18.975Z,10.00
2018-03-29T12:51:47.092Z,10.60
2018-03-29T12:54:15.270Z,10.70
2018-03-29T12:56:55.182Z,10.80
2018-03-29T12:59:24.096Z,10.90
2018-03-29T13:01:52.198Z,10.90
2018-03-29T13:04:20.340Z,11.00
2018-03-29T13:06:48.455Z,10.80
2018-03-29T13:09:16.592Z,10.70
2018-03-29T13:11:44.712Z,10.80
2018-03-29T13:14:12.843Z,10.80
2018-03-29T13:16:40.952Z,10.80
2018-03-29T13:19:09.092Z,10.80
2018-03-29T13:21:37.208Z,10.70
2018-03-29T13:24:05.338Z,10.70
2018-03-29T13:26:33.468Z,10.80
2018-03-29T13:29:01.607Z,11.00
2018-03-29T13:31:29.722Z,10.70
2018-03-29T13:33:57.853Z,10.90
2018-03-29T13:36:25.970Z,11.00
2018-03-29T13:38:54.862Z,10.80
2018-03-29T13:41:23.750Z,10.90
2018-03-29T13:43:51.880Z,10.90
2018-03-29T13:46:19.999Z,11.10
2018-03-29T13:48:48.881Z,10.90
2018-03-29T13:51:17.025Z,10.90
2018-03-29T13:53:45.143Z,10.90
2018-03-29T13:56:14.049Z,11.00
2018-03-29T13:58:42.161Z,11.00
2018-03-29T14:01:10.308Z,10.80
2018-03-29T14:03:38.424Z,10.70
2018-03-29T14:06:06.565Z,10.60
2018-03-29T14:08:34.684Z,10.70
2018-03-29T14:11:02.833Z,10.40
2018-03-29T14:13:30.945Z,10.10
2018-03-29T14:15:59.852Z,10.20
2018-03-29T14:18:27.959Z,10.20
2018-03-29T14:20:56.135Z,10.20
2018-03-29T14:23:24.253Z,10.20
2018-03-29T14:25:53.156Z,10.60
2018-03-29T14:28:22.037Z,10.50
2018-03-29T14:30:50.945Z,10.60
2018-03-29T14:33:19.071Z,10.60
2018-03-29T14:35:47.228Z,10.80
2018-03-29T14:38:15.344Z,10.70
2018-03-29T14:40:43.505Z,10.70
2018-03-29T14:43:12.405Z,10.70
2018-03-29T14:45:40.577Z,10.70
2018-03-29T14:48:08.680Z,10.80
2018-03-29T14:50:37.590Z,11.00
2018-03-29T14:53:05.704Z,11.00
2018-03-29T14:55:34.660Z,11.00
2018-03-29T14:58:03.242Z,11.10
2018-03-29T15:00:31.403Z,11.10
2018-03-29T15:03:00.283Z,11.50
2018-03-29T15:05:29.192Z,11.40
2018-03-29T15:07:57.310Z,11.30
2018-03-29T15:10:25.456Z,11.30
2018-03-29T15:12:53.569Z,11.30
2018-03-29T15:15:21.728Z,11.50
2018-03-29T15:17:49.837Z,11.30
2018-03-29T15:20:18.736Z,11.10
2018-03-29T15:22:47.623Z,11.10
2018-03-29T15:25:16.515Z,11.20
2018-03-29T15:27:45.415Z,11.10
2018-03-29T15:30:14.320Z,11.20
2018-03-29T15:32:42.426Z,11.20
2018-03-29T15:35:10.577Z,11.20
2018-03-29T15:37:38.682Z,11.40
2018-03-29T15:40:06.955Z,11.30
2018-03-29T15:42:35.244Z,11.30
2018-03-29T15:45:03.580Z,11.20
2018-03-29T15:47:31.690Z,11.10
2018-03-29T15:49:59.836Z,11.10
2018-03-29T15:52:27.969Z,10.90
2018-03-29T15:54:56.881Z,11.10
2018-03-29T15:57:25.448Z,11.00
2018-03-29T15:59:53.710Z,11.00
2018-03-29T16:02:21.820Z,10.80
2018-03-29T16:04:50.498Z,10.90
2018-03-29T16:07:18.616Z,10.80
2018-03-29T16:09:46.761Z,10.80
2018-03-29T16:12:15.492Z,10.80
2018-03-29T16:14:43.633Z,11.00
2018-03-29T16:17:11.761Z,10.90
2018-03-29T16:19:41.063Z,10.80
2018-03-29T16:22:09.967Z,10.70
2018-03-29T16:24:38.093Z,10.60
2018-03-29T16:27:06.313Z,10.60
2018-03-29T16:29:34.437Z,10.70
2018-03-29T16:32:02.870Z,10.70
2018-03-29T16:34:31.744Z,10.50
2018-03-29T16:37:00.652Z,10.30
2018-03-29T16:39:28.764Z,10.30
2018-03-29T16:41:56.902Z,10.10
2018-03-29T16:44:25.788Z,9.90
2018-03-29T16:46:54.695Z,9.70
2018-03-29T16:49:22.813Z,9.70
2018-03-29T16:51:50.948Z,9.60
2018-03-29T16:54:19.056Z,9.40
2018-03-29T16:56:47.188Z,9.30
2018-03-29T16:59:15.349Z,9.40
2018-03-29T17:01:44.247Z,9.00
2018-03-29T17:04:12.352Z,9.00
2018-03-29T17:06:40.467Z,8.70
2018-03-29T17:09:09.345Z,8.70
2018-03-29T17:11:37.486Z,8.60
2018-03-29T17:14:05.592Z,8.80
2018-03-29T17:16:33.734Z,8.80
2018-03-29T17:19:01.850Z,8.80
2018-03-29T17:21:30.764Z,8.70
2018-03-29T17:23:58.872Z,8.60
2018-03-29T17:26:27.016Z,8.50
2018-03-29T17:28:55.125Z,8.30
2018-03-29T17:31:23.282Z,8.30
2018-03-29T17:33:51.404Z,8.30
2018-03-29T17:36:19.535Z,8.20
2018-03-29T17:38:47.737Z,8.00
2018-03-29T17:41:16.885Z,8.30
2018-03-29T17:43:45.742Z,8.10
2018-03-29T17:46:14.640Z,7.70
2018-03-29T17:48:45.104Z,7.50
2018-03-29T17:51:13.573Z,7.50
2018-03-29T17:53:41.681Z,7.30
2018-03-29T17:56:09.808Z,7.10
2018-03-29T17:58:38.693Z,6.80
2018-03-29T18:01:07.584Z,6.60
2018-03-29T18:03:37.133Z,6.70
2018-03-29T18:06:05.304Z,6.70
2018-03-29T18:08:33.430Z,6.70
2018-03-29T18:11:02.329Z,6.80
2018-03-29T18:13:31.660Z,6.80
2018-03-29T18:16:01.039Z,6.80
2018-03-29T18:18:31.222Z,6.90
2018-03-29T18:20:59.355Z,6.90
2018-03-29T18:23:27.491Z,6.80
2018-03-29T18:25:55.610Z,6.60
2018-03-29T18:28:23.723Z,6.50
2018-03-29T18:30:51.872Z,6.50
2018-03-29T18:33:19.981Z,6.60
2018-03-29T18:35:48.121Z,6.60
2018-03-29T18:38:16.236Z,6.60
2018-03-29T18:40:45.141Z,6.50
2018-03-29T18:43:14.015Z,6.50
2018-03-29T18:45:42.148Z,6.50
2018-03-29T18:48:10.259Z,6.40
2018-03-29T18:50:38.383Z,6.40
2018-03-29T18:53:06.500Z,6.40
2018-03-29T18:55:34.637Z,6.30
2018-03-29T18:58:02.804Z,5.90
2018-03-29T19:00:30.915Z,5.90
2018-03-29T19:02:59.048Z,5.90
2018-03-29T19:05:27.165Z,5.80
2018-03-29T19:07:55.289Z,5.80
2018-03-29T19:10:23.411Z,5.90
2018-03-29T19:12:51.543Z,5.80
2018-03-29T19:15:19.646Z,5.70
2018-03-29T19:17:47.776Z,5.60
2018-03-29T19:20:15.874Z,5.60
2018-03-29T19:22:44.004Z,5.50
2018-03-29T19:25:12.884Z,5.30
2018-03-29T19:27:41.791Z,5.20
2018-03-29T19:30:09.924Z,5.10
2018-03-29T19:32:38.047Z,5.20
2018-03-29T19:35:06.151Z,5.20
2018-03-29T19:37:34.274Z,5.30
2018-03-29T19:40:03.148Z,5.10
2018-03-29T19:42:31.288Z,5.10
2018-03-29T19:44:59.401Z,5.00
2018-03-29T19:47:27.541Z,4.90
2018-03-29T19:49:55.662Z,5.00
2018-03-29T19:52:24.551Z,5.00
2018-03-29T19:54:53.525Z,4.90
2018-03-29T19:57:21.656Z,4.90
2018-03-29T19:59:49.781Z,4.80
2018-03-29T20:02:18.681Z,4.90
2018-03-29T20:04:47.562Z,4.70
2018-03-29T20:07:15.687Z,4.70
2018-03-29T20:09:43.806Z,4.70
2018-03-29T20:12:11.936Z,4.70
2018-03-29T20:14:40.039Z,4.50
2018-03-29T20:17:08.908Z,4.40
2018-03-29T20:19:37.021Z,4.20
2018-03-29T20:22:05.977Z,4.50
2018-03-29T20:24:34.080Z,4.50
2018-03-29T20:27:02.229Z,4.50
2018-03-29T20:29:30.368Z,4.30
2018-03-29T20:31:58.557Z,3.70
2018-03-29T20:34:26.734Z,3.50
2018-03-29T20:36:54.946Z,3.60
2018-03-29T20:39:23.054Z,3.80
2018-03-29T20:41:51.186Z,3.90
2018-03-29T20:44:19.296Z,4.00
2018-03-29T20:46:48.419Z,4.10
2018-03-29T20:49:16.527Z,4.00
2018-03-29T20:51:44.668Z,3.70
2018-03-29T20:54:12.840Z,3.40
2018-03-29T20:56:40.979Z,3.30
2018-03-29T20:59:09.106Z,3.50
2018-03-29T21:01:37.236Z,3.60
2018-03-29T21:04:05.403Z,3.60
2018-03-29T21:06:33.566Z,3.70
2018-03-29T21:09:01.842Z,3.70
2018-03-29T21:11:30.731Z,3.70
2018-03-29T21:13:59.731Z,3.70
2018-03-29T21:16:28.590Z,3.80
2018-03-29T21:18:56.733Z,3.80
2018-03-29T21:21:24.857Z,3.80
2018-03-29T21:23:53.760Z,3.40
2018-03-29T21:26:23.657Z,3.50
2018-03-29T21:28:53.132Z,3.50
2018-03-29T21:31:21.483Z,3.60
2018-03-29T21:33:49.599Z,3.70
2018-03-29T21:36:17.860Z,3.60
2018-03-29T21:38:46.801Z,3.60
2018-03-29T21:41:15.666Z,3.40
2018-03-29T21:43:43.800Z,3.40
2018-03-29T21:46:11.947Z,3.30
2018-03-29T21:48:40.312Z,3.20
2018-03-29T21:51:08.473Z,3.30
2018-03-29T21:53:37.359Z,2.90
2018-03-29T21:56:05.479Z,2.90
2018-03-29T21:58:33.610Z,2.60
2018-03-29T22:01:01.733Z,2.80
2018-03-29T22:03:29.861Z,2.90
2018-03-29T22:05:58.768Z,3.00
2018-03-29T22:08:26.912Z,3.00
2018-03-29T22:10:55.102Z,2.90
2018-03-29T22:13:23.259Z,2.80
2018-03-29T22:15:51.367Z,2.90
2018-03-29T22:18:19.504Z,2.90
2018-03-29T22:20:47.618Z,3.00
2018-03-29T22:23:16.517Z,3.10
2018-03-29T22:25:44.647Z,3.10
2018-03-29T22:28:12.775Z,3.10
2018-03-29T22:30:40.885Z,2.70
2018-03-29T22:33:09.058Z,2.40
2018-03-29T22:35:37.159Z,2.30
2018-03-29T22:38:06.055Z,2.30
2018-03-29T22:40:34.926Z,2.40
2018-03-29T22:43:03.067Z,2.40
2018-03-29T22:45:31.185Z,2.50
2018-03-29T22:47:59.330Z,2.60
2018-03-29T22:50:27.431Z,2.70
2018-03-29T22:52:56.332Z,2.80
2018-03-29T22:55:25.212Z,2.90
2018-03-29T22:57:53.345Z,2.90
2018-03-29T23:00:27.864Z,2.90
2018-03-29T23:02:55.999Z,2.80
2018-03-29T23:05:24.113Z,2.60
2018-03-29T23:07:52.250Z,2.60
2018-03-29T23:10:20.346Z,2.60
2018-03-29T23:12:48.485Z,2.40
2018-03-29T23:15:17.370Z,2.20
2018-03-29T23:17:46.277Z,2.40
2018-03-29T23:20:14.392Z,2.40
2018-03-29T23:22:42.700Z,2.50
2018-03-29T23:25:10.823Z,2.40
2018-03-29T23:27:38.960Z,2.30
2018-03-29T23:30:07.831Z,2.50
2018-03-29T23:32:35.951Z,2.40
2018-03-29T23:35:05.792Z,2.50
2018-03-29T23:37:33.932Z,2.50
2018-03-29T23:40:02.046Z,2.40
2018-03-29T23:42:30.177Z,2.50
2018-03-29T23:44:59.242Z,2.50
2018-03-29T23:47:27.376Z,2.50
2018-03-29T23:49:55.501Z,2.60
2018-03-29T23:52:24.395Z,2.70
2018-03-29T23:54:53.263Z,2.70
2018-03-29T23:57:21.402Z,2.70
2018-03-29T23:59:49.520Z,2.70
